createdAt,value
2024-02-02T00:01:22.251Z,56.30
2024-02-02T00:03:56.948Z,56.83
2024-02-02T00:06:24.556Z,63.50
2024-02-02T00:08:52.032Z,60.83
2024-02-02T00:11:27.895Z,62.30
2024-02-02T00:13:55.374Z,63.53
2024-02-02T00:16:24.426Z,61.78
2024-02-02T00:19:01.090Z,56.10
2024-02-02T00:21:28.741Z,62.80
2024-02-02T00:23:56.331Z,67.25
2024-02-02T00:26:30.579Z,81.78
2024-02-02T00:28:58.021Z,90.32
2024-02-02T00:31:26.963Z,111.97
2024-02-02T00:34:02.534Z,100.10
2024-02-02T00:36:30.229Z,86.53
2024-02-02T00:38:57.835Z,87.55
2024-02-02T00:41:31.529Z,81.57
2024-02-02T00:43:58.943Z,77.78
2024-02-02T00:46:27.793Z,80.90
2024-02-02T00:49:01.731Z,76.40
2024-02-02T00:51:29.271Z,81.97
2024-02-02T00:53:56.831Z,77.43
2024-02-02T00:56:30.626Z,78.03
2024-02-02T00:58:58.130Z,79.47
2024-02-02T01:01:27.091Z,74.97
2024-02-02T01:04:02.596Z,90.65
2024-02-02T01:06:30.580Z,87.78
2024-02-02T01:08:58.149Z,99.00
2024-02-02T01:11:33.759Z,104.18
2024-02-02T01:14:01.158Z,96.65
2024-02-02T01:16:31.994Z,89.10
2024-02-02T01:19:07.732Z,85.85
2024-02-02T01:21:35.359Z,89.35
2024-02-02T01:24:02.969Z,85.13
2024-02-02T01:26:38.345Z,88.97
2024-02-02T01:29:05.824Z,91.43
2024-02-02T01:31:34.681Z,72.28
2024-02-02T01:34:09.745Z,74.97
2024-02-02T01:36:37.381Z,67.90
2024-02-02T01:39:04.950Z,65.13
2024-02-02T01:41:38.576Z,66.78
2024-02-02T01:44:06.175Z,60.22
2024-02-02T01:46:35.086Z,63.90
2024-02-02T01:51:57.690Z,69.35
2024-02-02T01:54:32.809Z,65.35
2024-02-02T01:57:00.349Z,65.22
2024-02-02T01:59:27.883Z,61.15
2024-02-02T02:02:03.529Z,69.72
2024-02-02T02:04:31.036Z,63.05
2024-02-02T02:06:58.474Z,57.15
2024-02-02T02:09:32.628Z,60.33
2024-02-02T02:12:00.157Z,61.53
2024-02-02T02:14:27.721Z,63.33
2024-02-02T02:17:03.562Z,62.35
2024-02-02T02:19:31.112Z,55.28
2024-02-02T02:22:00.055Z,58.30
2024-02-02T02:24:35.897Z,55.35
2024-02-02T02:27:03.964Z,53.47
2024-02-02T02:29:31.501Z,61.92
2024-02-02T02:32:05.906Z,61.30
2024-02-02T02:34:33.709Z,60.70
2024-02-02T02:37:02.719Z,64.60
2024-02-02T02:39:38.108Z,69.80
2024-02-02T02:42:06.126Z,66.82
2024-02-02T02:44:33.660Z,64.47
2024-02-02T02:47:07.597Z,61.83
2024-02-02T02:49:35.405Z,68.80
2024-02-02T02:52:04.923Z,61.22
2024-02-02T02:54:39.787Z,66.40
2024-02-02T02:57:07.363Z,62.22
2024-02-02T02:59:34.804Z,65.63
2024-02-02T03:02:08.612Z,61.35
2024-02-02T03:04:36.108Z,66.38
2024-02-02T03:07:05.591Z,57.83
2024-02-02T03:09:40.831Z,54.03
2024-02-02T03:12:08.609Z,56.70
2024-02-02T03:14:36.116Z,58.80
2024-02-02T03:17:12.127Z,52.13
2024-02-02T03:19:39.625Z,52.47
2024-02-02T03:22:08.612Z,57.05
2024-02-02T03:24:43.188Z,53.88
2024-02-02T03:27:10.783Z,57.45
2024-02-02T03:29:38.254Z,62.65
2024-02-02T03:32:12.571Z,61.28
2024-02-02T03:34:40.210Z,54.47
2024-02-02T03:37:09.225Z,60.60
2024-02-02T03:39:43.598Z,58.53
2024-02-02T03:42:11.172Z,57.47
2024-02-02T03:44:38.657Z,59.28
2024-02-02T03:47:13.698Z,60.33
2024-02-02T03:49:41.281Z,54.80
2024-02-02T03:52:10.246Z,60.25
2024-02-02T03:54:44.694Z,57.17
2024-02-02T03:57:12.394Z,49.78
2024-02-02T03:59:39.795Z,47.55
2024-02-02T04:02:13.609Z,55.42
2024-02-02T04:04:41.190Z,60.05
2024-02-02T04:07:10.073Z,60.97
2024-02-02T04:09:43.801Z,58.63
2024-02-02T04:12:11.306Z,53.35
2024-02-02T04:14:38.762Z,54.08
2024-02-02T04:17:13.472Z,58.10
2024-02-02T04:19:41.006Z,51.22
2024-02-02T04:22:09.881Z,50.90
2024-02-02T04:24:43.616Z,51.95
2024-02-02T04:27:11.153Z,48.65
2024-02-02T04:29:38.597Z,53.90
2024-02-02T04:32:13.753Z,48.78
2024-02-02T04:34:41.493Z,49.03
2024-02-02T04:37:10.586Z,48.63
2024-02-02T04:42:33.384Z,49.50
2024-02-02T04:45:07.693Z,50.47
2024-02-02T04:47:35.324Z,52.50
2024-02-02T04:50:02.896Z,47.53
2024-02-02T04:52:38.631Z,49.78
2024-02-02T04:55:06.818Z,47.97
2024-02-02T04:57:34.396Z,45.30
2024-02-02T05:00:09.264Z,41.38
2024-02-02T05:02:36.787Z,40.92
2024-02-02T05:05:04.736Z,44.50
2024-02-02T05:07:39.648Z,41.60
2024-02-02T05:10:08.963Z,47.00
2024-02-02T05:12:36.549Z,42.10
2024-02-02T05:15:12.117Z,39.78
2024-02-02T05:17:39.701Z,39.55
2024-02-02T05:20:08.263Z,39.45
2024-02-02T05:22:46.058Z,53.83
2024-02-02T05:25:15.249Z,61.70
2024-02-02T05:27:43.207Z,63.30
2024-02-02T05:30:18.355Z,51.58
2024-02-02T05:32:45.915Z,49.90
2024-02-02T05:35:13.663Z,43.72
2024-02-02T05:37:52.049Z,46.13
2024-02-02T05:40:19.574Z,40.92
2024-02-02T05:42:47.086Z,50.28
2024-02-02T05:45:24.147Z,44.13
2024-02-02T05:47:51.765Z,41.65
2024-02-02T05:50:19.254Z,46.67
2024-02-02T05:52:55.358Z,51.28
2024-02-02T05:55:22.843Z,49.03
2024-02-02T05:57:50.277Z,45.75
2024-02-02T06:00:26.087Z,47.55
2024-02-02T06:02:53.841Z,45.65
2024-02-02T06:05:21.384Z,43.00
2024-02-02T06:07:59.026Z,41.67
2024-02-02T06:10:26.578Z,43.08
2024-02-02T06:12:54.470Z,57.08
2024-02-02T06:15:30.204Z,53.40
2024-02-02T06:17:57.750Z,50.00
2024-02-02T06:20:25.811Z,51.60
2024-02-02T06:23:02.611Z,55.28
2024-02-02T06:25:31.006Z,49.28
2024-02-02T06:27:58.434Z,54.85
2024-02-02T06:30:32.781Z,51.50
2024-02-02T06:33:00.692Z,51.97
2024-02-02T06:35:28.964Z,59.33
2024-02-02T06:38:07.681Z,48.78
2024-02-02T06:40:35.246Z,50.15
2024-02-02T06:43:02.862Z,51.60
2024-02-02T06:45:38.321Z,51.60
2024-02-02T06:48:07.755Z,50.72
2024-02-02T06:50:36.238Z,58.42
2024-02-02T06:53:13.219Z,51.88
2024-02-02T06:55:41.240Z,51.08
2024-02-02T06:58:22.897Z,49.80
2024-02-02T07:00:50.814Z,49.88
2024-02-02T07:03:18.951Z,47.67
2024-02-02T07:05:54.725Z,47.67
2024-02-02T07:08:24.026Z,47.58
2024-02-02T07:11:09.704Z,42.03
2024-02-02T07:13:45.988Z,47.05
2024-02-02T07:16:22.120Z,43.53
2024-02-02T07:18:49.760Z,57.47
2024-02-02T07:21:17.418Z,41.90
2024-02-02T07:23:52.782Z,41.35
2024-02-02T07:26:27.653Z,37.13
2024-02-02T07:29:02.106Z,38.78
2024-02-02T07:31:39.611Z,37.33
2024-02-02T07:34:36.284Z,37.47
2024-02-02T07:37:04.761Z,61.13
2024-02-02T07:39:33.793Z,58.60
2024-02-02T07:42:07.801Z,60.70
2024-02-02T07:44:35.744Z,56.88
2024-02-02T07:47:03.322Z,56.35
2024-02-02T07:49:38.550Z,43.40
2024-02-02T07:52:06.596Z,47.72
2024-02-02T07:54:35.691Z,41.95
2024-02-02T07:57:11.174Z,45.08
2024-02-02T07:59:38.719Z,40.22
2024-02-02T08:02:06.314Z,45.42
2024-02-02T08:04:41.945Z,46.72
2024-02-02T08:07:09.638Z,48.72
2024-02-02T08:09:38.774Z,43.15
2024-02-02T08:12:17.171Z,47.38
2024-02-02T08:14:44.799Z,72.10
2024-02-02T08:17:12.308Z,62.00
2024-02-02T08:19:47.403Z,57.03
2024-02-02T08:22:14.941Z,56.13
2024-02-02T08:24:43.877Z,42.10
2024-02-02T08:27:18.128Z,46.35
2024-02-02T08:29:45.797Z,42.40
2024-02-02T08:32:13.314Z,39.83
2024-02-02T08:34:47.761Z,41.97
2024-02-02T08:37:15.245Z,43.00
2024-02-02T08:39:44.115Z,34.72
2024-02-02T08:42:24.330Z,39.30
2024-02-02T08:44:51.894Z,45.38
2024-02-02T08:47:19.492Z,44.50
2024-02-02T08:49:56.397Z,47.47
2024-02-02T08:52:31.343Z,44.40
2024-02-02T08:55:07.784Z,41.40
2024-02-02T08:57:37.948Z,40.13
2024-02-02T09:00:44.733Z,34.47
2024-02-02T09:03:34.913Z,35.50
2024-02-02T09:06:09.619Z,45.50
2024-02-02T09:08:37.658Z,46.25
2024-02-02T09:11:32.501Z,36.15
2024-02-02T09:14:05.428Z,31.73
2024-02-02T09:16:58.081Z,32.13
2024-02-02T09:19:30.711Z,41.08
2024-02-02T09:24:55.663Z,34.17
2024-02-02T09:30:29.964Z,34.35
2024-02-02T09:33:05.968Z,38.20
2024-02-02T09:35:51.270Z,39.78
2024-02-02T09:38:27.655Z,41.03
2024-02-02T09:41:19.525Z,37.55
2024-02-02T09:43:57.906Z,33.85
2024-02-02T09:46:31.676Z,33.40
2024-02-02T09:49:11.483Z,36.88
2024-02-02T09:51:48.035Z,32.28
2024-02-02T09:54:30.366Z,34.83
2024-02-02T09:57:03.562Z,34.10
2024-02-02T10:00:02.879Z,35.92
2024-02-02T10:02:45.053Z,35.40
2024-02-02T10:05:26.816Z,35.80
2024-02-02T10:08:08.873Z,36.50
2024-02-02T10:11:01.103Z,33.78
2024-02-02T10:13:48.783Z,35.17
2024-02-02T10:16:37.361Z,33.65
2024-02-02T10:19:29.688Z,35.65
2024-02-02T10:22:14.849Z,36.47
2024-02-02T10:25:07.644Z,36.95
2024-02-02T10:28:10.799Z,33.83
2024-02-02T10:30:56.381Z,35.47
2024-02-02T10:33:41.119Z,39.85
2024-02-02T10:36:17.164Z,47.53
2024-02-02T10:39:09.797Z,39.10
2024-02-02T10:41:49.379Z,32.63
2024-02-02T10:44:32.774Z,32.03
2024-02-02T10:47:07.154Z,33.97
2024-02-02T10:49:57.541Z,32.75
2024-02-02T10:52:31.538Z,32.20
2024-02-02T10:55:18.838Z,26.02
2024-02-02T10:57:52.551Z,27.63
2024-02-02T11:00:27.981Z,29.85
2024-02-02T11:03:10.611Z,28.83
2024-02-02T11:08:40.309Z,24.02
2024-02-02T11:11:17.405Z,26.00
2024-02-02T11:13:49.734Z,26.23
2024-02-02T11:16:41.618Z,26.00
2024-02-02T11:19:18.338Z,24.45
2024-02-02T11:22:26.732Z,25.05
2024-02-02T11:25:10.764Z,30.02
2024-02-02T11:27:49.922Z,30.02
2024-02-02T11:30:36.962Z,30.30
2024-02-02T11:33:27.089Z,28.73
2024-02-02T11:36:03.750Z,32.88
2024-02-02T11:38:49.203Z,31.88
2024-02-02T11:41:18.951Z,24.85
2024-02-02T11:43:46.406Z,23.90
2024-02-02T11:46:21.876Z,23.15
2024-02-02T11:48:50.582Z,29.90
2024-02-02T11:51:18.070Z,23.60
2024-02-02T11:54:00.132Z,25.85
2024-02-02T11:56:32.206Z,23.67
2024-02-02T11:59:09.794Z,18.50
2024-02-02T12:01:45.459Z,17.52
2024-02-02T12:04:31.708Z,18.83
2024-02-02T12:07:06.486Z,17.17
2024-02-02T12:09:45.852Z,19.10
2024-02-02T12:12:18.102Z,17.77
2024-02-02T12:14:57.418Z,18.17
2024-02-02T12:17:24.898Z,19.85
2024-02-02T12:19:52.615Z,16.70
2024-02-02T12:22:26.882Z,11.88
2024-02-02T12:24:55.744Z,11.43
2024-02-02T12:27:23.172Z,11.93
2024-02-02T12:29:58.223Z,11.00
2024-02-02T12:32:26.432Z,12.48
2024-02-02T12:34:54.020Z,12.15
2024-02-02T12:37:30.010Z,13.07
2024-02-02T12:39:58.864Z,11.70
2024-02-02T12:42:26.410Z,14.43
2024-02-02T12:47:48.816Z,13.80
2024-02-02T12:50:23.182Z,11.27
2024-02-02T12:52:50.761Z,17.77
2024-02-02T12:55:19.888Z,13.93
2024-02-02T12:57:54.979Z,12.23
2024-02-02T13:00:25.745Z,17.77
2024-02-02T13:02:55.732Z,18.30
2024-02-02T13:05:29.873Z,21.27
2024-02-02T13:07:57.373Z,23.10
2024-02-02T13:10:46.327Z,23.13
2024-02-02T13:13:14.691Z,23.08
2024-02-02T13:15:42.331Z,19.58
2024-02-02T13:18:25.322Z,21.33
2024-02-02T13:20:53.821Z,25.65
2024-02-02T13:23:24.732Z,23.60
2024-02-02T13:28:50.384Z,22.30
2024-02-02T13:31:26.824Z,21.17
2024-02-02T13:33:54.826Z,22.23
2024-02-02T13:36:22.265Z,22.42
2024-02-02T13:38:58.884Z,23.42
2024-02-02T13:41:27.719Z,20.58
2024-02-02T13:43:58.643Z,18.45
2024-02-02T13:46:32.893Z,21.40
2024-02-02T13:49:04.344Z,18.67
2024-02-02T13:51:32.161Z,21.92
2024-02-02T13:54:06.234Z,25.27
2024-02-02T13:56:35.242Z,24.67
2024-02-02T13:59:02.785Z,23.67
2024-02-02T14:01:37.975Z,20.58
2024-02-02T14:04:05.677Z,23.80
2024-02-02T14:06:33.304Z,22.35
2024-02-02T14:09:08.176Z,21.65
2024-02-02T14:11:39.266Z,20.45
2024-02-02T14:14:06.730Z,23.73
2024-02-02T14:16:40.887Z,21.20
2024-02-02T14:19:09.518Z,21.63
2024-02-02T14:21:38.415Z,20.33
2024-02-02T14:24:15.114Z,18.33
2024-02-02T14:26:51.115Z,17.67
2024-02-02T14:29:27.295Z,19.85
2024-02-02T14:31:55.759Z,15.98
2024-02-02T14:34:23.372Z,16.45
2024-02-02T14:36:57.990Z,16.77
2024-02-02T14:39:26.665Z,18.30
2024-02-02T14:41:55.935Z,16.98
2024-02-02T14:44:30.104Z,18.95
2024-02-02T14:46:57.819Z,16.95
2024-02-02T14:49:25.599Z,16.08
2024-02-02T14:52:02.245Z,17.60
2024-02-02T14:54:29.740Z,17.98
2024-02-02T14:56:58.611Z,15.63
2024-02-02T14:59:35.987Z,17.38
2024-02-02T15:02:04.004Z,19.50
2024-02-02T15:04:31.592Z,16.88
2024-02-02T15:07:06.027Z,18.05
2024-02-02T15:09:33.833Z,24.52
2024-02-02T15:12:05.442Z,25.42
2024-02-02T15:14:39.955Z,27.50
2024-02-02T15:17:07.372Z,23.60
2024-02-02T15:19:35.043Z,37.35
2024-02-02T15:22:08.900Z,30.50
2024-02-02T15:24:36.410Z,38.75
2024-02-02T15:27:05.698Z,33.17
2024-02-02T15:29:40.201Z,28.55
2024-02-02T15:32:07.937Z,38.95
2024-02-02T15:34:35.809Z,30.52
2024-02-02T15:37:10.781Z,27.30
2024-02-02T15:39:38.855Z,24.90
2024-02-02T15:42:08.348Z,30.92
2024-02-02T15:44:43.462Z,35.55
2024-02-02T15:47:10.892Z,34.42
2024-02-02T15:49:38.766Z,33.25
2024-02-02T15:52:14.261Z,29.38
2024-02-02T15:54:41.763Z,29.35
2024-02-02T15:57:10.668Z,36.42
2024-02-02T15:59:47.070Z,44.10
2024-02-02T16:02:14.440Z,41.40
2024-02-02T16:04:41.900Z,36.65
2024-02-02T16:07:16.720Z,70.43
2024-02-02T16:09:44.462Z,76.45
2024-02-02T16:12:14.250Z,56.78
2024-02-02T16:14:49.402Z,70.97
2024-02-02T16:17:16.819Z,84.82
2024-02-02T16:19:44.635Z,61.83
2024-02-02T16:22:19.112Z,57.85
2024-02-02T16:24:46.790Z,66.85
2024-02-02T16:27:15.851Z,66.43
2024-02-02T16:29:50.869Z,57.05
2024-02-02T16:32:18.402Z,56.40
2024-02-02T16:34:46.131Z,58.42
2024-02-02T16:37:20.974Z,71.43
2024-02-02T16:39:48.567Z,73.22
2024-02-02T16:42:17.514Z,67.10
2024-02-02T16:44:52.615Z,65.70
2024-02-02T16:47:20.089Z,58.17
2024-02-02T16:49:47.735Z,57.08
2024-02-02T16:52:22.058Z,52.70
2024-02-02T16:54:49.645Z,49.75
2024-02-02T16:57:18.608Z,51.00
2024-02-02T16:59:53.098Z,42.78
2024-02-02T17:02:28.334Z,37.15
2024-02-02T17:05:09.417Z,54.05
2024-02-02T17:07:36.940Z,47.92
2024-02-02T17:10:05.272Z,37.38
2024-02-02T17:12:42.800Z,31.58
2024-02-02T17:15:10.895Z,32.80
2024-02-02T17:17:38.380Z,32.90
2024-02-02T17:20:14.091Z,30.00
2024-02-02T17:22:41.609Z,34.47
2024-02-02T17:25:10.146Z,36.03
2024-02-02T17:27:46.067Z,33.60
2024-02-02T17:30:15.164Z,29.23
2024-02-02T17:32:42.770Z,33.00
2024-02-02T17:35:18.486Z,32.38
2024-02-02T17:37:45.865Z,34.20
2024-02-02T17:40:13.731Z,33.03
2024-02-02T17:42:49.106Z,29.83
2024-02-02T17:45:16.729Z,35.72
2024-02-02T17:47:44.294Z,33.22
2024-02-02T17:50:18.076Z,30.17
2024-02-02T17:52:45.688Z,30.55
2024-02-02T17:55:13.198Z,31.50
2024-02-02T17:57:50.113Z,29.15
2024-02-02T18:00:18.436Z,26.33
2024-02-02T18:02:45.978Z,30.75
2024-02-02T18:05:21.164Z,33.17
2024-02-02T18:07:48.903Z,34.85
2024-02-02T18:10:16.867Z,31.88
2024-02-02T18:12:52.890Z,41.53
2024-02-02T18:15:20.529Z,42.63
2024-02-02T18:17:48.082Z,62.17
2024-02-02T18:20:22.881Z,71.00
2024-02-02T18:22:50.417Z,48.08
2024-02-02T18:25:17.865Z,30.85
2024-02-02T18:27:53.176Z,35.33
2024-02-02T18:30:20.756Z,66.28
2024-02-02T18:32:48.281Z,54.75
2024-02-02T18:35:23.090Z,61.75
2024-02-02T18:37:50.594Z,50.40
2024-02-02T18:40:18.059Z,53.75
2024-02-02T18:42:53.241Z,46.50
2024-02-02T18:45:20.772Z,47.05
2024-02-02T18:47:49.222Z,48.05
2024-02-02T18:50:23.027Z,42.72
2024-02-02T18:52:50.778Z,36.65
2024-02-02T18:55:18.368Z,43.55
2024-02-02T18:57:56.499Z,38.15
2024-02-02T19:00:24.009Z,45.40
2024-02-02T19:02:51.531Z,42.78
2024-02-02T19:05:26.074Z,43.33
2024-02-02T19:07:53.646Z,38.13
2024-02-02T19:10:21.231Z,39.47
2024-02-02T19:12:57.062Z,43.53
2024-02-02T19:15:24.693Z,51.97
2024-02-02T19:17:52.289Z,50.88
2024-02-02T19:20:26.883Z,55.78
2024-02-02T19:22:54.310Z,47.85
2024-02-02T19:25:21.904Z,52.00
2024-02-02T19:27:57.132Z,49.35
2024-02-02T19:30:24.670Z,56.75
2024-02-02T19:32:52.150Z,69.00
2024-02-02T19:35:26.077Z,63.45
2024-02-02T19:37:53.870Z,67.93
2024-02-02T19:40:21.437Z,63.28
2024-02-02T19:42:57.062Z,62.65
2024-02-02T19:45:24.571Z,72.43
2024-02-02T19:47:52.200Z,70.28
2024-02-02T19:50:27.341Z,66.43
2024-02-02T19:52:54.768Z,57.42
2024-02-02T19:55:22.198Z,70.78
2024-02-02T19:58:00.995Z,76.05
2024-02-02T20:00:28.525Z,49.63
2024-02-02T20:02:56.010Z,66.22
2024-02-02T20:05:30.173Z,67.57
2024-02-02T20:07:57.554Z,72.82
2024-02-02T20:10:24.922Z,75.35
2024-02-02T20:13:02.107Z,75.18
2024-02-02T20:15:29.496Z,137.88
2024-02-02T20:17:57.018Z,140.20
2024-02-02T20:20:31.595Z,123.03
2024-02-02T20:22:59.044Z,114.82
2024-02-02T20:25:26.459Z,102.18
2024-02-02T20:28:03.340Z,112.65
2024-02-02T20:30:30.757Z,116.32
2024-02-02T20:32:58.350Z,105.47
2024-02-02T20:35:32.879Z,89.68
2024-02-02T20:38:00.597Z,68.18
2024-02-02T20:40:28.105Z,48.97
2024-02-02T20:43:04.121Z,49.25
2024-02-02T20:45:31.828Z,46.88
2024-02-02T20:47:59.395Z,48.03
2024-02-02T20:50:33.748Z,46.45
2024-02-02T20:53:01.263Z,58.80
2024-02-02T20:55:28.870Z,66.53
2024-02-02T20:58:06.829Z,72.28
2024-02-02T21:00:34.565Z,78.88
2024-02-02T21:03:02.072Z,79.40
2024-02-02T21:05:38.328Z,83.03
2024-02-02T21:08:06.759Z,93.72
2024-02-02T21:10:34.324Z,75.32
2024-02-02T21:13:16.213Z,71.32
2024-02-02T21:15:43.877Z,69.25
2024-02-02T21:18:11.779Z,49.28
2024-02-02T21:20:47.333Z,46.70
2024-02-02T21:23:14.891Z,49.45
2024-02-02T21:25:42.400Z,40.92
2024-02-02T21:28:18.678Z,38.53
2024-02-02T21:30:46.324Z,44.35
2024-02-02T21:33:15.383Z,46.10
2024-02-02T21:35:51.925Z,37.53
2024-02-02T21:38:19.443Z,42.47
2024-02-02T21:40:46.921Z,45.72
2024-02-02T21:43:22.603Z,47.45
2024-02-02T21:45:50.191Z,49.53
2024-02-02T21:48:17.924Z,52.97
2024-02-02T21:50:52.315Z,59.67
2024-02-02T21:53:19.805Z,60.25
2024-02-02T21:55:47.352Z,49.92
2024-02-02T21:58:23.221Z,53.80
2024-02-02T22:00:50.945Z,51.95
2024-02-02T22:03:18.590Z,45.88
2024-02-02T22:05:53.313Z,47.28
2024-02-02T22:08:20.877Z,52.75
2024-02-02T22:10:48.443Z,50.90
2024-02-02T22:13:25.558Z,49.58
2024-02-02T22:15:53.118Z,48.72
2024-02-02T22:18:20.708Z,48.00
2024-02-02T22:20:56.128Z,45.63
2024-02-02T22:23:23.623Z,47.00
2024-02-02T22:25:51.185Z,46.90
2024-02-02T22:28:26.957Z,47.70
2024-02-02T22:30:54.467Z,42.33
2024-02-02T22:33:22.242Z,48.97
2024-02-02T22:35:56.179Z,47.13
2024-02-02T22:38:23.716Z,53.72
2024-02-02T22:40:51.415Z,59.13
2024-02-02T22:43:28.451Z,52.90
2024-02-02T22:45:56.213Z,56.22
2024-02-02T22:48:24.090Z,58.92
2024-02-02T22:50:58.229Z,65.07
2024-02-02T22:53:25.788Z,60.00
2024-02-02T22:55:53.302Z,65.53
2024-02-02T22:58:29.957Z,63.58
2024-02-02T23:00:57.647Z,68.05
2024-02-02T23:03:25.408Z,65.35
2024-02-02T23:05:59.317Z,63.97
2024-02-02T23:08:27.165Z,58.75
2024-02-02T23:10:54.852Z,60.03
2024-02-02T23:13:30.179Z,59.05
2024-02-02T23:15:57.813Z,56.80
2024-02-02T23:18:25.788Z,57.17
2024-02-02T23:21:00.994Z,56.15
2024-02-02T23:23:28.683Z,55.65
2024-02-02T23:25:56.200Z,61.13
2024-02-02T23:28:32.380Z,54.10
2024-02-02T23:31:00.081Z,55.55
2024-02-02T23:33:27.765Z,51.15
2024-02-02T23:36:02.273Z,50.22
2024-02-02T23:38:29.940Z,51.35
2024-02-02T23:40:57.519Z,49.58
2024-02-02T23:43:34.526Z,48.05
2024-02-02T23:46:02.148Z,53.60
2024-02-02T23:48:29.869Z,47.58
2024-02-02T23:51:07.664Z,45.97
2024-02-02T23:53:35.448Z,50.55
2024-02-02T23:56:03.183Z,52.45
2024-02-02T23:58:40.619Z,48.30
